createdAt,value
2022-11-10T00:01:07.283Z,5.45
2022-11-10T00:03:54.969Z,5.43
2022-11-10T00:06:34.000Z,5.40
2022-11-10T00:09:15.097Z,5.43
2022-11-10T00:11:54.392Z,5.47
2022-11-10T00:14:48.752Z,5.49
2022-11-10T00:17:35.964Z,5.51
2022-11-10T00:20:14.743Z,5.52
2022-11-10T00:22:56.284Z,5.55
2022-11-10T00:25:35.113Z,5.60
2022-11-10T00:28:15.264Z,5.59
2022-11-10T00:30:55.376Z,5.59
2022-11-10T00:33:38.020Z,5.60
2022-11-10T00:36:15.776Z,5.64
2022-11-10T00:38:56.002Z,5.68
2022-11-10T00:41:36.257Z,5.71
2022-11-10T00:44:16.746Z,5.73
2022-11-10T00:46:56.361Z,5.74
2022-11-10T00:49:36.990Z,5.72
2022-11-10T00:52:16.717Z,5.70
2022-11-10T00:54:57.063Z,5.65
2022-11-10T00:57:37.078Z,5.59
2022-11-10T01:00:17.508Z,5.53
2022-11-10T01:02:57.725Z,5.46
2022-11-10T01:05:38.098Z,5.45
2022-11-10T01:08:17.793Z,5.43
2022-11-10T01:11:07.873Z,5.36
2022-11-10T01:13:50.425Z,5.34
2022-11-10T01:16:30.626Z,5.34
2022-11-10T01:19:08.341Z,5.34
2022-11-10T01:21:51.233Z,5.34
2022-11-10T01:24:28.729Z,5.33
2022-11-10T01:27:08.885Z,5.34
2022-11-10T01:29:49.193Z,5.33
2022-11-10T01:32:29.299Z,5.36
2022-11-10T01:35:09.883Z,5.36
2022-11-10T01:37:51.698Z,5.40
2022-11-10T01:40:29.741Z,5.46
2022-11-10T01:43:11.577Z,5.51
2022-11-10T01:45:52.874Z,5.56
2022-11-10T01:48:40.257Z,5.61
2022-11-10T01:51:27.779Z,5.69
2022-11-10T01:54:18.079Z,5.73
2022-11-10T01:57:06.003Z,5.81
2022-11-10T01:59:51.071Z,5.84
2022-11-10T02:02:38.987Z,5.54
2022-11-10T02:05:22.961Z,5.50
2022-11-10T02:08:02.897Z,5.32
2022-11-10T02:10:41.632Z,5.14
2022-11-10T02:13:22.199Z,4.99
2022-11-10T02:16:02.354Z,4.84
2022-11-10T02:18:42.112Z,4.73
2022-11-10T02:21:22.413Z,4.81
2022-11-10T02:24:02.550Z,4.79
2022-11-10T02:26:57.156Z,4.77
2022-11-10T02:29:42.965Z,4.69
2022-11-10T02:32:22.963Z,4.68
2022-11-10T02:35:04.125Z,4.66
2022-11-10T02:37:43.348Z,4.65
2022-11-10T02:40:23.583Z,4.66
2022-11-10T02:43:06.081Z,4.70
2022-11-10T02:45:44.068Z,4.70
2022-11-10T02:48:24.071Z,4.73
2022-11-10T02:51:06.981Z,4.72
2022-11-10T02:53:44.413Z,4.71
2022-11-10T02:56:24.612Z,4.67
2022-11-10T02:59:04.637Z,4.63
2022-11-10T03:01:44.958Z,4.64
2022-11-10T03:04:25.189Z,4.69
2022-11-10T03:07:05.208Z,4.80
2022-11-10T03:09:45.332Z,4.87
2022-11-10T03:12:25.396Z,4.88
2022-11-10T03:15:06.085Z,4.95
2022-11-10T03:17:45.913Z,5.01
2022-11-10T03:20:25.876Z,5.01
2022-11-10T03:23:06.540Z,4.99
2022-11-10T03:25:46.533Z,4.92
2022-11-10T03:28:28.189Z,4.86
2022-11-10T03:31:06.572Z,4.73
2022-11-10T03:33:46.781Z,4.66
2022-11-10T03:36:26.946Z,4.64
2022-11-10T03:39:12.334Z,4.60
2022-11-10T03:41:57.142Z,4.53
2022-11-10T03:44:37.105Z,4.43
2022-11-10T03:47:17.237Z,4.40
2022-11-10T03:49:57.386Z,4.36
2022-11-10T03:52:39.747Z,4.37
2022-11-10T03:55:18.986Z,4.36
2022-11-10T03:58:02.679Z,4.38
2022-11-10T04:00:48.217Z,4.39
2022-11-10T04:03:28.313Z,4.35
2022-11-10T04:06:22.738Z,4.34
2022-11-10T04:09:08.632Z,4.30
2022-11-10T04:12:02.933Z,4.29
2022-11-10T04:15:03.190Z,4.31
2022-11-10T04:17:50.611Z,4.39
2022-11-10T04:20:29.389Z,4.52
2022-11-10T04:23:24.081Z,4.64
2022-11-10T04:26:29.493Z,4.76
2022-11-10T04:29:11.694Z,4.83
2022-11-10T04:31:50.009Z,4.85
2022-11-10T04:34:30.165Z,4.73
2022-11-10T04:37:10.523Z,4.80
2022-11-10T04:39:50.512Z,4.88
2022-11-10T04:42:30.694Z,4.91
2022-11-10T04:45:10.884Z,4.89
2022-11-10T04:47:51.013Z,4.86
2022-11-10T04:50:31.252Z,4.90
2022-11-10T04:53:11.614Z,4.90
2022-11-10T04:55:54.251Z,4.80
2022-11-10T04:58:32.272Z,4.79
2022-11-10T05:01:13.715Z,4.73
2022-11-10T05:03:53.259Z,4.73
2022-11-10T05:06:33.377Z,4.76
2022-11-10T05:09:12.276Z,4.80
2022-11-10T05:11:52.434Z,4.79
2022-11-10T05:14:32.681Z,4.79
2022-11-10T05:17:12.934Z,4.63
2022-11-10T05:19:53.112Z,4.62
2022-11-10T05:22:33.426Z,4.58
2022-11-10T05:25:13.680Z,4.56
2022-11-10T05:27:53.751Z,4.51
2022-11-10T05:30:34.949Z,4.58
2022-11-10T05:33:14.114Z,4.59
2022-11-10T05:35:54.114Z,4.60
2022-11-10T05:38:37.573Z,4.63
2022-11-10T05:41:24.712Z,4.77
2022-11-10T05:44:04.562Z,4.89
2022-11-10T05:46:44.748Z,5.01
2022-11-10T05:49:26.490Z,5.07
2022-11-10T05:52:05.302Z,5.14
2022-11-10T05:54:47.543Z,5.23
2022-11-10T05:57:34.576Z,5.31
2022-11-10T06:00:21.313Z,5.36
2022-11-10T06:03:28.010Z,5.45
2022-11-10T06:06:17.570Z,5.44
2022-11-10T06:09:04.495Z,5.21
2022-11-10T06:11:46.360Z,5.05
2022-11-10T06:14:28.784Z,4.89
2022-11-10T06:17:06.818Z,4.87
2022-11-10T06:19:46.715Z,4.89
2022-11-10T06:22:26.824Z,4.87
2022-11-10T06:25:10.195Z,4.85
2022-11-10T06:27:47.378Z,4.86
2022-11-10T06:30:30.637Z,4.85
2022-11-10T06:33:08.475Z,4.85
2022-11-10T06:35:47.905Z,4.88
2022-11-10T06:38:28.152Z,4.92
2022-11-10T06:41:09.009Z,4.98
2022-11-10T06:43:48.475Z,5.01
2022-11-10T06:46:28.830Z,5.00
2022-11-10T06:49:19.495Z,5.11
2022-11-10T06:52:08.302Z,5.21
2022-11-10T06:54:49.345Z,5.25
2022-11-10T06:57:29.790Z,5.30
2022-11-10T07:00:10.705Z,5.37
2022-11-10T07:03:10.428Z,5.45
2022-11-10T07:05:51.634Z,5.54
2022-11-10T07:08:34.088Z,5.60
2022-11-10T07:11:32.773Z,5.69
2022-11-10T07:22:10.596Z,5.81
2022-11-10T07:24:59.855Z,5.82
2022-11-10T07:25:20.294Z,5.86
2022-11-10T07:29:07.459Z,5.89
2022-11-10T07:38:48.056Z,5.83
2022-11-10T07:41:38.933Z,5.86
2022-11-10T07:42:21.153Z,5.80
2022-11-10T07:44:27.932Z,5.87
2022-11-10T07:47:18.254Z,5.75
2022-11-10T07:50:20.036Z,5.71
2022-11-10T07:53:20.367Z,5.61
2022-11-10T07:56:07.697Z,5.51
2022-11-10T07:58:57.994Z,5.48
2022-11-10T08:01:56.383Z,5.42
2022-11-10T08:04:36.280Z,5.54
2022-11-10T08:07:18.789Z,5.46
2022-11-10T08:10:11.320Z,5.51
2022-11-10T08:13:06.731Z,5.61
2022-11-10T08:15:47.276Z,5.64
2022-11-10T08:18:35.127Z,5.76
2022-11-10T08:21:17.352Z,5.96
2022-11-10T08:23:57.456Z,6.16
2022-11-10T08:26:37.590Z,6.33
2022-11-10T08:29:19.004Z,6.51
2022-11-10T08:32:12.177Z,6.62
2022-11-10T08:35:02.958Z,6.73
2022-11-10T08:37:56.427Z,6.83
2022-11-10T08:40:40.776Z,6.84
2022-11-10T08:43:57.939Z,6.90
2022-11-10T08:46:55.882Z,6.76
2022-11-10T08:50:11.847Z,6.73
2022-11-10T08:53:34.906Z,6.79
2022-11-10T08:56:27.882Z,6.71
2022-11-10T08:59:24.506Z,6.58
2022-11-10T09:02:22.797Z,6.53
2022-11-10T09:05:33.973Z,6.54
2022-11-10T09:08:43.520Z,6.61
2022-11-10T09:11:59.807Z,6.60
2022-11-10T09:14:51.634Z,6.45
2022-11-10T09:17:35.641Z,6.39
2022-11-10T09:20:23.842Z,6.43
2022-11-10T09:23:17.463Z,6.53
2022-11-10T09:26:26.246Z,6.67
2022-11-10T09:29:13.512Z,6.83
2022-11-10T09:33:05.490Z,6.88
2022-11-10T09:36:49.750Z,7.09
2022-11-10T09:40:01.795Z,7.20
2022-11-10T09:42:42.236Z,7.28
2022-11-10T09:46:07.035Z,7.44
2022-11-10T09:49:29.475Z,7.60
2022-11-10T09:52:17.784Z,7.73
2022-11-10T09:55:23.633Z,7.83
2022-11-10T10:02:14.195Z,8.01
2022-11-10T10:05:32.919Z,8.03
2022-11-10T10:08:38.300Z,8.07
2022-11-10T10:11:44.969Z,8.12
2022-11-10T10:15:01.940Z,7.97
2022-11-10T10:18:20.450Z,7.85
2022-11-10T10:21:30.718Z,7.75
2022-11-10T10:24:22.351Z,7.73
2022-11-10T10:27:13.918Z,7.77
2022-11-10T10:30:00.693Z,7.81
2022-11-10T10:33:14.386Z,7.83
2022-11-10T10:35:54.465Z,7.61
2022-11-10T10:38:40.874Z,7.53
2022-11-10T10:41:27.252Z,7.49
2022-11-10T10:44:18.460Z,7.40
2022-11-10T10:47:07.271Z,7.33
2022-11-10T10:50:17.428Z,7.22
2022-11-10T10:53:18.979Z,7.26
2022-11-10T10:56:20.295Z,7.39
2022-11-10T10:59:06.075Z,7.54
2022-11-10T11:01:49.274Z,7.50
2022-11-10T11:04:39.294Z,7.51
2022-11-10T11:07:29.143Z,7.54
2022-11-10T11:10:31.543Z,7.53
2022-11-10T11:13:25.572Z,7.54
2022-11-10T11:16:12.465Z,7.56
2022-11-10T11:18:55.296Z,7.69
2022-11-10T11:21:44.487Z,7.79
2022-11-10T11:24:37.783Z,7.85
2022-11-10T11:27:39.623Z,7.92
2022-11-10T11:38:54.464Z,7.70
2022-11-10T11:42:04.063Z,7.78
2022-11-10T11:45:19.429Z,7.78
2022-11-10T11:52:35.382Z,7.72
2022-11-10T11:55:40.501Z,7.74
2022-11-10T11:58:44.859Z,7.77
2022-11-10T12:01:52.022Z,7.80
2022-11-10T12:04:45.947Z,7.84
2022-11-10T12:07:54.488Z,7.82
2022-11-10T12:11:05.364Z,7.79
2022-11-10T12:14:57.748Z,7.80
2022-11-10T12:18:49.501Z,7.94
2022-11-10T12:22:54.791Z,8.06
2022-11-10T12:26:37.707Z,8.18
2022-11-10T12:39:55.482Z,8.40
2022-11-10T12:52:29.433Z,8.22
2022-11-10T12:52:45.174Z,8.26
2022-11-10T12:56:10.416Z,8.20
2022-11-10T13:08:41.480Z,8.09
2022-11-10T13:15:21.474Z,8.08
2022-11-10T13:18:22.374Z,8.03
2022-11-10T13:21:23.571Z,7.99
2022-11-10T13:24:39.708Z,7.90
2022-11-10T13:25:50.447Z,8.17
2022-11-10T13:27:51.685Z,7.90
2022-11-10T13:30:42.644Z,8.01
2022-11-10T13:51:47.964Z,8.43
2022-11-10T13:55:11.843Z,8.53
2022-11-10T14:01:23.861Z,8.57
2022-11-10T14:04:06.586Z,8.55
2022-11-10T14:07:04.540Z,8.54
2022-11-10T14:09:50.630Z,8.49
2022-11-10T14:12:52.298Z,8.40
2022-11-10T14:16:17.306Z,8.35
2022-11-10T14:19:39.128Z,8.28
2022-11-10T14:22:40.468Z,8.12
2022-11-10T14:25:41.958Z,7.90
2022-11-10T14:28:47.865Z,7.80
2022-11-10T14:32:16.422Z,7.63
2022-11-10T14:35:16.714Z,7.54
2022-11-10T14:38:23.452Z,7.52
2022-11-10T14:41:21.825Z,7.56
2022-11-10T14:44:11.519Z,7.61
2022-11-10T14:46:55.959Z,7.66
2022-11-10T14:49:35.647Z,7.71
2022-11-10T14:52:16.948Z,7.78
2022-11-10T14:55:05.587Z,7.85
2022-11-10T14:57:51.704Z,7.89
2022-11-10T15:00:47.233Z,7.93
2022-11-10T15:04:02.577Z,7.97
2022-11-10T15:06:58.359Z,7.99
2022-11-10T15:10:07.945Z,8.03
2022-11-10T15:13:01.436Z,8.10
2022-11-10T15:16:17.065Z,8.11
2022-11-10T15:31:03.403Z,7.89
2022-11-10T15:33:51.248Z,7.82
2022-11-10T15:36:41.890Z,7.75
2022-11-10T15:39:49.565Z,7.67
2022-11-10T15:42:28.230Z,7.64
2022-11-10T15:45:16.947Z,7.63
2022-11-10T15:48:13.001Z,7.59
2022-11-10T15:50:59.866Z,7.54
2022-11-10T15:53:44.387Z,7.50
2022-11-10T15:56:46.805Z,7.46
2022-11-10T15:59:31.271Z,7.41
2022-11-10T16:02:24.072Z,7.37
2022-11-10T16:10:11.410Z,7.33
2022-11-10T16:23:15.723Z,7.61
2022-11-10T16:25:59.437Z,7.64
2022-11-10T16:28:51.572Z,7.64
2022-11-10T16:31:54.076Z,7.62
2022-11-10T16:34:40.381Z,7.62
2022-11-10T16:37:42.346Z,7.57
2022-11-10T16:40:31.224Z,7.53
2022-11-10T17:33:05.060Z,6.87
2022-11-10T17:35:49.128Z,6.87
2022-11-10T17:38:34.607Z,6.87
2022-11-10T17:41:19.683Z,6.87
2022-11-10T17:44:05.086Z,6.90
2022-11-10T17:46:45.153Z,6.90
2022-11-10T17:49:25.868Z,6.87
2022-11-10T17:52:05.596Z,6.85
2022-11-10T17:54:45.951Z,6.84
2022-11-10T17:57:26.278Z,6.82
2022-11-10T18:00:08.369Z,6.80
2022-11-10T18:02:51.238Z,6.76
2022-11-10T18:05:39.120Z,6.72
2022-11-10T18:08:26.919Z,6.69
2022-11-10T18:11:08.482Z,6.65
2022-11-10T18:13:47.335Z,6.63
2022-11-10T18:16:27.207Z,6.63
2022-11-10T18:19:07.449Z,6.65
2022-11-10T18:21:47.610Z,6.67
2022-11-10T18:24:29.993Z,6.71
2022-11-10T18:27:08.436Z,6.77
2022-11-10T18:29:48.159Z,6.85
2022-11-10T18:32:28.365Z,6.93
2022-11-10T18:35:08.605Z,7.02
2022-11-10T18:37:48.531Z,7.11
2022-11-10T18:40:28.629Z,7.23
2022-11-10T18:43:08.870Z,7.35
2022-11-10T18:45:53.139Z,7.44
2022-11-10T18:48:39.520Z,7.47
2022-11-10T18:51:19.295Z,7.51
2022-11-10T18:53:59.609Z,7.54
2022-11-10T18:56:39.602Z,7.56
2022-11-10T18:59:19.893Z,7.56
2022-11-10T19:02:00.287Z,7.56
2022-11-10T19:04:40.577Z,7.55
2022-11-10T19:07:20.817Z,7.56
2022-11-10T19:10:00.567Z,7.55
2022-11-10T19:12:40.704Z,7.56
2022-11-10T19:15:20.915Z,7.56
2022-11-10T19:18:01.098Z,7.56
2022-11-10T19:20:41.704Z,7.55
2022-11-10T19:23:22.113Z,7.56
2022-11-10T19:26:03.669Z,7.57
2022-11-10T19:28:42.789Z,7.58
2022-11-10T19:31:23.604Z,7.62
2022-11-10T19:34:02.257Z,7.68
2022-11-10T19:36:42.317Z,7.74
2022-11-10T19:39:23.229Z,7.81
2022-11-10T19:42:02.731Z,7.87
2022-11-10T19:44:49.267Z,7.95
2022-11-10T19:47:33.459Z,8.04
2022-11-10T19:50:15.636Z,8.13
2022-11-10T19:53:04.058Z,8.22
2022-11-10T19:55:43.723Z,8.30
2022-11-10T19:58:23.842Z,8.36
2022-11-10T20:01:11.381Z,8.41
2022-11-10T20:04:00.440Z,8.45
2022-11-10T20:06:50.021Z,8.48
2022-11-10T20:09:34.865Z,8.50
2022-11-10T20:12:15.194Z,8.51
2022-11-10T20:14:59.767Z,8.51
2022-11-10T20:17:45.234Z,8.50
2022-11-10T20:20:49.544Z,8.53
2022-11-10T20:23:36.996Z,8.50
2022-11-10T20:26:17.781Z,8.47
2022-11-10T20:29:00.750Z,8.46
2022-11-10T20:31:47.596Z,8.45
2022-11-10T20:34:29.924Z,8.44
2022-11-10T20:37:17.975Z,8.43
2022-11-10T20:39:57.091Z,8.43
2022-11-10T20:42:42.407Z,8.44
2022-11-10T20:45:34.489Z,8.47
2022-11-10T20:48:19.788Z,8.50
2022-11-10T20:50:58.047Z,8.54
2022-11-10T20:53:43.730Z,8.57
2022-11-10T20:56:29.957Z,8.61
2022-11-10T20:59:09.193Z,8.67
2022-11-10T21:01:59.016Z,8.73
2022-11-10T21:04:47.087Z,8.79
2022-11-10T21:07:31.760Z,8.84
2022-11-10T21:10:23.847Z,8.86
2022-11-10T21:13:09.529Z,8.89
2022-11-10T21:15:52.866Z,8.89
2022-11-10T21:18:39.920Z,8.87
2022-11-10T21:21:28.109Z,8.83
2022-11-10T21:24:17.880Z,8.77
2022-11-10T21:27:12.075Z,8.73
2022-11-10T21:29:53.045Z,8.66
2022-11-10T21:32:34.255Z,8.61
2022-11-10T21:35:26.280Z,8.58
2022-11-10T21:38:13.660Z,8.54
2022-11-10T21:40:52.385Z,8.53
2022-11-10T21:43:35.936Z,8.51
2022-11-10T21:46:22.773Z,8.50
2022-11-10T21:49:07.407Z,8.49
2022-11-10T21:51:53.007Z,8.51
2022-11-10T21:54:36.314Z,8.52
2022-11-10T21:57:24.458Z,8.55
2022-11-10T22:00:08.722Z,8.59
2022-11-10T22:02:59.269Z,8.64
2022-11-10T22:05:48.540Z,8.72
2022-11-10T22:08:36.519Z,8.79
2022-11-10T22:11:31.894Z,8.85
2022-11-10T22:14:29.108Z,8.90
2022-11-10T22:17:29.363Z,8.96
2022-11-10T22:20:19.410Z,9.01
2022-11-10T22:23:07.432Z,9.04
2022-11-10T22:25:54.154Z,9.06
2022-11-10T22:28:36.653Z,9.06
2022-11-10T22:31:21.200Z,9.05
2022-11-10T22:34:06.978Z,9.03
2022-11-10T22:36:50.077Z,9.01
2022-11-10T22:39:51.519Z,8.98
2022-11-10T22:42:50.908Z,8.95
2022-11-10T22:45:38.161Z,8.88
2022-11-10T22:48:28.489Z,8.85
2022-11-10T22:51:08.117Z,8.82
2022-11-10T22:53:48.582Z,8.79
2022-11-10T22:56:30.173Z,8.77
2022-11-10T22:59:09.070Z,8.76
2022-11-10T23:01:49.261Z,8.75
2022-11-10T23:04:29.911Z,8.76
2022-11-10T23:07:08.820Z,8.79
2022-11-10T23:09:49.350Z,8.81
2022-11-10T23:12:31.827Z,8.84
2022-11-10T23:15:22.310Z,8.83
2022-11-10T23:18:09.454Z,8.79
2022-11-10T23:20:49.632Z,8.75
2022-11-10T23:23:33.340Z,8.72
2022-11-10T23:26:24.119Z,8.73
2022-11-10T23:29:12.669Z,8.71
2022-11-10T23:32:00.365Z,8.68
2022-11-10T23:34:40.897Z,8.67
2022-11-10T23:37:21.299Z,8.64
2022-11-10T23:40:00.740Z,8.60
2022-11-10T23:42:40.911Z,8.57
2022-11-10T23:45:21.080Z,8.56
2022-11-10T23:48:06.597Z,8.55
2022-11-10T23:50:51.808Z,8.56
2022-11-10T23:53:31.969Z,8.59
2022-11-10T23:56:13.662Z,8.61
2022-11-10T23:58:52.253Z,8.66
